sensor_id;sensor_type;location;lat;lon;timestamp;temperature;humidity
75161;DHT22;67232;50.096;8.716;2023-02-13T00:02:01;10.80;78.50
75161;DHT22;67232;50.096;8.716;2023-02-13T00:04:29;10.70;78.60
75161;DHT22;67232;50.096;8.716;2023-02-13T00:06:54;10.70;78.60
75161;DHT22;67232;50.096;8.716;2023-02-13T00:09:22;10.80;78.50
75161;DHT22;67232;50.096;8.716;2023-02-13T00:11:50;10.80;78.40
75161;DHT22;67232;50.096;8.716;2023-02-13T00:14:15;10.80;78.50
75161;DHT22;67232;50.096;8.716;2023-02-13T00:16:41;10.70;78.50
75161;DHT22;67232;50.096;8.716;2023-02-13T00:19:07;10.70;78.50
75161;DHT22;67232;50.096;8.716;2023-02-13T00:21:32;10.70;78.40
75161;DHT22;67232;50.096;8.716;2023-02-13T00:23:58;10.60;78.60
75161;DHT22;67232;50.096;8.716;2023-02-13T00:26:24;10.60;78.70
75161;DHT22;67232;50.096;8.716;2023-02-13T00:28:52;10.70;78.60
75161;DHT22;67232;50.096;8.716;2023-02-13T00:31:19;10.80;78.30
75161;DHT22;67232;50.096;8.716;2023-02-13T00:33:45;10.70;78.40
75161;DHT22;67232;50.096;8.716;2023-02-13T00:36:19;10.70;78.40
75161;DHT22;67232;50.096;8.716;2023-02-13T00:38:46;10.70;78.50
75161;DHT22;67232;50.096;8.716;2023-02-13T00:41:13;10.70;78.40
75161;DHT22;67232;50.096;8.716;2023-02-13T00:43:38;10.80;78.30
75161;DHT22;67232;50.096;8.716;2023-02-13T00:46:05;10.60;78.10
75161;DHT22;67232;50.096;8.716;2023-02-13T00:48:32;10.60;78.30
75161;DHT22;67232;50.096;8.716;2023-02-13T00:51:03;10.60;78.30
75161;DHT22;67232;50.096;8.716;2023-02-13T00:53:29;10.60;77.70
75161;DHT22;67232;50.096;8.716;2023-02-13T00:55:55;10.40;78.10
75161;DHT22;67232;50.096;8.716;2023-02-13T00:58:21;10.40;78.10
75161;DHT22;67232;50.096;8.716;2023-02-13T01:00:48;10.40;78.10
75161;DHT22;67232;50.096;8.716;2023-02-13T01:03:17;10.40;78.00
75161;DHT22;67232;50.096;8.716;2023-02-13T01:05:45;10.40;77.90
75161;DHT22;67232;50.096;8.716;2023-02-13T01:08:12;10.40;78.00
75161;DHT22;67232;50.096;8.716;2023-02-13T01:10:39;10.40;78.00
75161;DHT22;67232;50.096;8.716;2023-02-13T01:13:11;10.40;78.10
75161;DHT22;67232;50.096;8.716;2023-02-13T01:15:39;10.50;78.10
75161;DHT22;67232;50.096;8.716;2023-02-13T01:18:05;10.60;77.70
75161;DHT22;67232;50.096;8.716;2023-02-13T01:20:33;10.50;78.00
75161;DHT22;67232;50.096;8.716;2023-02-13T01:22:58;10.60;77.80
75161;DHT22;67232;50.096;8.716;2023-02-13T01:25:24;10.60;77.60
75161;DHT22;67232;50.096;8.716;2023-02-13T01:27:50;10.40;77.80
75161;DHT22;67232;50.096;8.716;2023-02-13T01:30:17;10.40;77.80
75161;DHT22;67232;50.096;8.716;2023-02-13T01:32:46;10.40;78.00
75161;DHT22;67232;50.096;8.716;2023-02-13T01:35:13;10.40;77.90
75161;DHT22;67232;50.096;8.716;2023-02-13T01:37:39;10.50;77.90
75161;DHT22;67232;50.096;8.716;2023-02-13T01:40:06;10.50;77.70
75161;DHT22;67232;50.096;8.716;2023-02-13T01:42:33;10.60;77.50
75161;DHT22;67232;50.096;8.716;2023-02-13T01:45:17;10.50;77.60
75161;DHT22;67232;50.096;8.716;2023-02-13T01:47:46;10.40;77.60
75161;DHT22;67232;50.096;8.716;2023-02-13T01:50:21;10.40;77.70
75161;DHT22;67232;50.096;8.716;2023-02-13T01:53:13;10.10;78.00
75161;DHT22;67232;50.096;8.716;2023-02-13T01:55:51;10.00;78.20
75161;DHT22;67232;50.096;8.716;2023-02-13T01:58:28;10.10;78.20
75161;DHT22;67232;50.096;8.716;2023-02-13T02:00:55;10.10;78.30
75161;DHT22;67232;50.096;8.716;2023-02-13T02:03:29;10.10;78.30
75161;DHT22;67232;50.096;8.716;2023-02-13T02:05:57;10.20;78.20
75161;DHT22;67232;50.096;8.716;2023-02-13T02:08:28;10.20;78.20
75161;DHT22;67232;50.096;8.716;2023-02-13T02:10:57;10.10;78.10
75161;DHT22;67232;50.096;8.716;2023-02-13T02:13:25;10.00;78.30
75161;DHT22;67232;50.096;8.716;2023-02-13T02:15:50;10.00;78.30
75161;DHT22;67232;50.096;8.716;2023-02-13T02:18:23;10.00;78.20
75161;DHT22;67232;50.096;8.716;2023-02-13T02:23:44;9.90;78.30
75161;DHT22;67232;50.096;8.716;2023-02-13T02:37:42;9.60;78.50
75161;DHT22;67232;50.096;8.716;2023-02-13T02:40:33;9.50;78.40
75161;DHT22;67232;50.096;8.716;2023-02-13T02:46:17;9.50;78.40
75161;DHT22;67232;50.096;8.716;2023-02-13T02:48:55;9.50;78.40
75161;DHT22;67232;50.096;8.716;2023-02-13T02:52:06;9.30;78.50
75161;DHT22;67232;50.096;8.716;2023-02-13T02:54:46;9.30;78.60
75161;DHT22;67232;50.096;8.716;2023-02-13T02:57:34;9.30;78.50
75161;DHT22;67232;50.096;8.716;2023-02-13T03:00:24;9.20;78.50
75161;DHT22;67232;50.096;8.716;2023-02-13T03:03:21;9.20;78.40
75161;DHT22;67232;50.096;8.716;2023-02-13T03:06:16;9.10;78.60
75161;DHT22;67232;50.096;8.716;2023-02-13T03:08:52;9.00;78.80
75161;DHT22;67232;50.096;8.716;2023-02-13T03:11:37;9.00;78.60
75161;DHT22;67232;50.096;8.716;2023-02-13T03:14:26;8.80;78.80
75161;DHT22;67232;50.096;8.716;2023-02-13T03:16:57;8.80;78.70
75161;DHT22;67232;50.096;8.716;2023-02-13T03:19:45;8.70;78.80
75161;DHT22;67232;50.096;8.716;2023-02-13T03:22:51;8.70;78.90
75161;DHT22;67232;50.096;8.716;2023-02-13T03:28:21;8.60;78.80
75161;DHT22;67232;50.096;8.716;2023-02-13T03:31:51;8.60;78.80
75161;DHT22;67232;50.096;8.716;2023-02-13T03:34:20;8.60;78.70
75161;DHT22;67232;50.096;8.716;2023-02-13T03:37:02;8.50;78.60
75161;DHT22;67232;50.096;8.716;2023-02-13T03:40:04;8.50;78.70
75161;DHT22;67232;50.096;8.716;2023-02-13T03:42:32;8.40;78.60
75161;DHT22;67232;50.096;8.716;2023-02-13T03:45:04;8.30;78.90
75161;DHT22;67232;50.096;8.716;2023-02-13T03:47:53;8.20;78.80
75161;DHT22;67232;50.096;8.716;2023-02-13T03:50:20;8.20;78.70
75161;DHT22;67232;50.096;8.716;2023-02-13T03:53:04;8.10;78.80
75161;DHT22;67232;50.096;8.716;2023-02-13T03:55:37;8.20;78.80
75161;DHT22;67232;50.096;8.716;2023-02-13T03:58:27;8.10;78.70
75161;DHT22;67232;50.096;8.716;2023-02-13T04:01:20;8.10;78.60
75161;DHT22;67232;50.096;8.716;2023-02-13T04:09:31;7.90;78.60
75161;DHT22;67232;50.096;8.716;2023-02-13T04:12:08;7.80;79.60
75161;DHT22;67232;50.096;8.716;2023-02-13T04:17:28;7.80;79.80
75161;DHT22;67232;50.096;8.716;2023-02-13T04:19:55;7.80;79.70
75161;DHT22;67232;50.096;8.716;2023-02-13T04:22:21;7.80;79.50
75161;DHT22;67232;50.096;8.716;2023-02-13T04:24:47;7.70;79.50
75161;DHT22;67232;50.096;8.716;2023-02-13T04:27:14;7.50;79.60
75161;DHT22;67232;50.096;8.716;2023-02-13T04:29:42;7.50;79.60
75161;DHT22;67232;50.096;8.716;2023-02-13T04:32:11;7.60;79.20
75161;DHT22;67232;50.096;8.716;2023-02-13T04:34:37;7.70;79.00
75161;DHT22;67232;50.096;8.716;2023-02-13T04:37:05;7.70;79.10
75161;DHT22;67232;50.096;8.716;2023-02-13T04:39:30;7.70;79.00
75161;DHT22;67232;50.096;8.716;2023-02-13T04:41:58;7.60;79.00
75161;DHT22;67232;50.096;8.716;2023-02-13T04:44:24;7.70;79.00
75161;DHT22;67232;50.096;8.716;2023-02-13T04:46:52;7.70;78.70
75161;DHT22;67232;50.096;8.716;2023-02-13T04:49:20;7.60;78.70
75161;DHT22;67232;50.096;8.716;2023-02-13T04:51:48;7.50;78.70
75161;DHT22;67232;50.096;8.716;2023-02-13T04:54:13;7.60;78.70
75161;DHT22;67232;50.096;8.716;2023-02-13T04:56:41;7.40;78.70
75161;DHT22;67232;50.096;8.716;2023-02-13T04:59:07;7.40;78.80
75161;DHT22;67232;50.096;8.716;2023-02-13T05:01:32;7.40;79.40
75161;DHT22;67232;50.096;8.716;2023-02-13T05:03:58;7.30;79.40
75161;DHT22;67232;50.096;8.716;2023-02-13T05:06:23;7.40;79.10
75161;DHT22;67232;50.096;8.716;2023-02-13T05:08:49;7.40;79.20
75161;DHT22;67232;50.096;8.716;2023-02-13T05:11:14;7.30;79.20
75161;DHT22;67232;50.096;8.716;2023-02-13T05:13:40;7.30;79.10
75161;DHT22;67232;50.096;8.716;2023-02-13T05:16:08;7.30;79.00
75161;DHT22;67232;50.096;8.716;2023-02-13T05:18:33;7.30;78.90
75161;DHT22;67232;50.096;8.716;2023-02-13T05:20:59;7.40;78.70
75161;DHT22;67232;50.096;8.716;2023-02-13T05:23:43;7.30;78.50
75161;DHT22;67232;50.096;8.716;2023-02-13T05:26:09;7.20;78.60
75161;DHT22;67232;50.096;8.716;2023-02-13T05:28:39;7.20;78.70
75161;DHT22;67232;50.096;8.716;2023-02-13T05:31:23;7.20;78.70
75161;DHT22;67232;50.096;8.716;2023-02-13T05:33:49;7.10;78.70
75161;DHT22;67232;50.096;8.716;2023-02-13T05:36:15;7.10;79.20
75161;DHT22;67232;50.096;8.716;2023-02-13T05:38:40;7.00;79.30
75161;DHT22;67232;50.096;8.716;2023-02-13T05:41:06;7.00;79.40
75161;DHT22;67232;50.096;8.716;2023-02-13T05:43:31;7.00;78.90
75161;DHT22;67232;50.096;8.716;2023-02-13T05:46:06;7.00;78.70
75161;DHT22;67232;50.096;8.716;2023-02-13T05:48:33;7.00;78.70
75161;DHT22;67232;50.096;8.716;2023-02-13T05:50:58;7.00;78.70
75161;DHT22;67232;50.096;8.716;2023-02-13T05:53:26;7.00;78.80
75161;DHT22;67232;50.096;8.716;2023-02-13T05:55:52;6.90;78.80
75161;DHT22;67232;50.096;8.716;2023-02-13T05:58:18;6.90;78.80
75161;DHT22;67232;50.096;8.716;2023-02-13T06:00:45;6.90;78.90
75161;DHT22;67232;50.096;8.716;2023-02-13T06:03:10;6.90;78.70
75161;DHT22;67232;50.096;8.716;2023-02-13T06:05:36;6.80;78.80
75161;DHT22;67232;50.096;8.716;2023-02-13T06:08:04;6.90;78.60
75161;DHT22;67232;50.096;8.716;2023-02-13T06:10:29;6.80;78.50
75161;DHT22;67232;50.096;8.716;2023-02-13T06:12:55;6.70;78.80
75161;DHT22;67232;50.096;8.716;2023-02-13T06:15:23;6.60;79.00
75161;DHT22;67232;50.096;8.716;2023-02-13T06:17:49;6.70;79.00
75161;DHT22;67232;50.096;8.716;2023-02-13T06:20:14;6.80;79.10
75161;DHT22;67232;50.096;8.716;2023-02-13T06:22:40;6.80;78.90
75161;DHT22;67232;50.096;8.716;2023-02-13T06:25:05;6.70;78.80
75161;DHT22;67232;50.096;8.716;2023-02-13T06:27:33;6.70;78.80
75161;DHT22;67232;50.096;8.716;2023-02-13T06:29:58;6.70;79.20
75161;DHT22;67232;50.096;8.716;2023-02-13T06:32:29;6.60;79.60
75161;DHT22;67232;50.096;8.716;2023-02-13T06:34:57;6.60;79.60
75161;DHT22;67232;50.096;8.716;2023-02-13T06:37:25;6.60;79.20
75161;DHT22;67232;50.096;8.716;2023-02-13T06:39:50;6.60;79.20
75161;DHT22;67232;50.096;8.716;2023-02-13T06:42:18;6.60;79.30
75161;DHT22;67232;50.096;8.716;2023-02-13T06:44:44;6.60;79.60
75161;DHT22;67232;50.096;8.716;2023-02-13T06:47:10;6.70;79.50
75161;DHT22;67232;50.096;8.716;2023-02-13T06:49:38;6.70;79.40
75161;DHT22;67232;50.096;8.716;2023-02-13T06:52:03;6.70;79.40
75161;DHT22;67232;50.096;8.716;2023-02-13T06:54:36;6.60;79.50
75161;DHT22;67232;50.096;8.716;2023-02-13T06:57:04;6.60;79.10
75161;DHT22;67232;50.096;8.716;2023-02-13T06:59:32;6.50;79.00
75161;DHT22;67232;50.096;8.716;2023-02-13T07:02:02;6.40;79.60
75161;DHT22;67232;50.096;8.716;2023-02-13T07:04:28;6.60;79.60
75161;DHT22;67232;50.096;8.716;2023-02-13T07:06:56;6.60;79.60
75161;DHT22;67232;50.096;8.716;2023-02-13T07:09:23;6.70;79.60
75161;DHT22;67232;50.096;8.716;2023-02-13T07:11:49;6.70;79.80
75161;DHT22;67232;50.096;8.716;2023-02-13T07:14:14;6.70;79.90
75161;DHT22;67232;50.096;8.716;2023-02-13T07:16:42;6.80;79.80
75161;DHT22;67232;50.096;8.716;2023-02-13T07:19:14;6.80;79.90
75161;DHT22;67232;50.096;8.716;2023-02-13T07:21:40;6.90;80.00
75161;DHT22;67232;50.096;8.716;2023-02-13T07:24:06;7.10;80.20
75161;DHT22;67232;50.096;8.716;2023-02-13T07:26:31;7.00;80.50
75161;DHT22;67232;50.096;8.716;2023-02-13T07:28:59;7.10;80.40
75161;DHT22;67232;50.096;8.716;2023-02-13T07:31:33;7.20;80.10
75161;DHT22;67232;50.096;8.716;2023-02-13T07:34:01;7.30;80.20
75161;DHT22;67232;50.096;8.716;2023-02-13T07:36:27;7.50;80.10
75161;DHT22;67232;50.096;8.716;2023-02-13T07:38:55;7.60;79.70
75161;DHT22;67232;50.096;8.716;2023-02-13T07:41:23;7.60;79.80
75161;DHT22;67232;50.096;8.716;2023-02-13T07:43:51;7.70;79.90
75161;DHT22;67232;50.096;8.716;2023-02-13T07:46:21;7.90;79.60
75161;DHT22;67232;50.096;8.716;2023-02-13T07:48:47;7.80;79.70
75161;DHT22;67232;50.096;8.716;2023-02-13T07:51:17;7.80;79.80
75161;DHT22;67232;50.096;8.716;2023-02-13T07:53:45;7.80;79.70
75161;DHT22;67232;50.096;8.716;2023-02-13T07:56:15;7.80;79.70
75161;DHT22;67232;50.096;8.716;2023-02-13T07:58:41;7.90;79.70
75161;DHT22;67232;50.096;8.716;2023-02-13T08:01:10;8.00;79.50
75161;DHT22;67232;50.096;8.716;2023-02-13T08:03:41;8.10;79.40
75161;DHT22;67232;50.096;8.716;2023-02-13T08:06:07;8.40;79.10
75161;DHT22;67232;50.096;8.716;2023-02-13T08:08:33;8.40;79.10
75161;DHT22;67232;50.096;8.716;2023-02-13T08:11:07;8.20;79.40
75161;DHT22;67232;50.096;8.716;2023-02-13T08:13:57;8.20;79.40
75161;DHT22;67232;50.096;8.716;2023-02-13T08:16:23;8.30;79.40
75161;DHT22;67232;50.096;8.716;2023-02-13T08:18:48;8.70;79.00
75161;DHT22;67232;50.096;8.716;2023-02-13T08:21:14;8.70;78.50
75161;DHT22;67232;50.096;8.716;2023-02-13T08:23:39;8.70;78.50
75161;DHT22;67232;50.096;8.716;2023-02-13T08:26:05;8.80;78.40
75161;DHT22;67232;50.096;8.716;2023-02-13T08:28:30;9.00;78.00
75161;DHT22;67232;50.096;8.716;2023-02-13T08:30:58;9.20;77.80
75161;DHT22;67232;50.096;8.716;2023-02-13T08:33:24;9.40;77.60
75161;DHT22;67232;50.096;8.716;2023-02-13T08:35:49;9.60;77.00
75161;DHT22;67232;50.096;8.716;2023-02-13T08:38:17;9.80;76.70
75161;DHT22;67232;50.096;8.716;2023-02-13T08:40:43;9.80;76.40
75161;DHT22;67232;50.096;8.716;2023-02-13T08:43:08;9.80;76.70
75161;DHT22;67232;50.096;8.716;2023-02-13T08:45:36;10.00;76.20
75161;DHT22;67232;50.096;8.716;2023-02-13T08:48:02;10.30;75.50
75161;DHT22;67232;50.096;8.716;2023-02-13T08:50:28;10.40;75.20
75161;DHT22;67232;50.096;8.716;2023-02-13T08:52:53;10.50;74.60
75161;DHT22;67232;50.096;8.716;2023-02-13T08:55:21;10.40;74.70
75161;DHT22;67232;50.096;8.716;2023-02-13T08:57:47;10.30;74.90
75161;DHT22;67232;50.096;8.716;2023-02-13T09:00:13;10.20;74.90
75161;DHT22;67232;50.096;8.716;2023-02-13T09:02:43;10.40;74.90
75161;DHT22;67232;50.096;8.716;2023-02-13T09:05:13;10.40;75.10
75161;DHT22;67232;50.096;8.716;2023-02-13T09:07:41;10.30;75.20
75161;DHT22;67232;50.096;8.716;2023-02-13T09:10:07;10.30;75.10
75161;DHT22;67232;50.096;8.716;2023-02-13T09:12:35;10.40;75.40
75161;DHT22;67232;50.096;8.716;2023-02-13T09:15:01;10.50;75.00
75161;DHT22;67232;50.096;8.716;2023-02-13T09:17:31;10.70;74.90
75161;DHT22;67232;50.096;8.716;2023-02-13T09:19:59;11.70;73.10
75161;DHT22;67232;50.096;8.716;2023-02-13T09:22:25;12.90;69.30
75161;DHT22;67232;50.096;8.716;2023-02-13T09:24:50;13.80;67.10
75161;DHT22;67232;50.096;8.716;2023-02-13T09:27:16;14.30;65.80
75161;DHT22;67232;50.096;8.716;2023-02-13T09:29:44;14.90;64.90
75161;DHT22;67232;50.096;8.716;2023-02-13T09:32:12;15.60;62.10
75161;DHT22;67232;50.096;8.716;2023-02-13T09:34:37;16.30;61.00
75161;DHT22;67232;50.096;8.716;2023-02-13T09:37:03;17.20;59.60
75161;DHT22;67232;50.096;8.716;2023-02-13T09:39:28;17.80;58.30
75161;DHT22;67232;50.096;8.716;2023-02-13T09:41:57;18.00;57.30
75161;DHT22;67232;50.096;8.716;2023-02-13T09:44:37;17.70;57.30
75161;DHT22;67232;50.096;8.716;2023-02-13T09:49:47;17.80;56.80
75161;DHT22;67232;50.096;8.716;2023-02-13T09:52:16;17.30;57.80
75161;DHT22;67232;50.096;8.716;2023-02-13T09:54:46;17.10;57.90
75161;DHT22;67232;50.096;8.716;2023-02-13T10:16:28;18.30;54.40
75161;DHT22;67232;50.096;8.716;2023-02-13T10:19:43;19.60;53.20
75161;DHT22;67232;50.096;8.716;2023-02-13T10:22:17;20.80;51.10
75161;DHT22;67232;50.096;8.716;2023-02-13T10:27:24;23.50;46.20
75161;DHT22;67232;50.096;8.716;2023-02-13T10:30:06;24.90;44.00
75161;DHT22;67232;50.096;8.716;2023-02-13T10:32:56;25.80;41.90
75161;DHT22;67232;50.096;8.716;2023-02-13T10:36:00;25.80;41.70
75161;DHT22;67232;50.096;8.716;2023-02-13T10:38:30;26.50;40.20
75161;DHT22;67232;50.096;8.716;2023-02-13T10:49:27;28.90;37.90
75161;DHT22;67232;50.096;8.716;2023-02-13T11:02:27;31.70;35.00
75161;DHT22;67232;50.096;8.716;2023-02-13T11:05:29;32.20;33.80
75161;DHT22;67232;50.096;8.716;2023-02-13T11:07:58;31.80;34.60
75161;DHT22;67232;50.096;8.716;2023-02-13T11:10:31;31.90;33.60
75161;DHT22;67232;50.096;8.716;2023-02-13T11:13:23;31.50;34.50
75161;DHT22;67232;50.096;8.716;2023-02-13T11:16:04;32.50;32.80
75161;DHT22;67232;50.096;8.716;2023-02-13T11:18:38;31.80;33.10
75161;DHT22;67232;50.096;8.716;2023-02-13T11:21:20;31.30;33.70
75161;DHT22;67232;50.096;8.716;2023-02-13T11:23:50;31.20;34.00
75161;DHT22;67232;50.096;8.716;2023-02-13T11:26:31;30.80;33.80
75161;DHT22;67232;50.096;8.716;2023-02-13T11:29:05;31.20;33.80
75161;DHT22;67232;50.096;8.716;2023-02-13T11:31:40;31.90;32.70
75161;DHT22;67232;50.096;8.716;2023-02-13T11:37:06;32.00;32.60
75161;DHT22;67232;50.096;8.716;2023-02-13T11:39:32;31.70;32.30
75161;DHT22;67232;50.096;8.716;2023-02-13T11:42:00;32.70;31.20
75161;DHT22;67232;50.096;8.716;2023-02-13T11:44:31;32.40;31.50
75161;DHT22;67232;50.096;8.716;2023-02-13T11:47:00;32.20;32.10
75161;DHT22;67232;50.096;8.716;2023-02-13T11:49:32;33.00;31.60
75161;DHT22;67232;50.096;8.716;2023-02-13T11:52:03;33.20;31.00
75161;DHT22;67232;50.096;8.716;2023-02-13T11:54:33;33.00;31.20
75161;DHT22;67232;50.096;8.716;2023-02-13T11:57:23;32.90;31.20
75161;DHT22;67232;50.096;8.716;2023-02-13T11:59:52;33.80;31.30
75161;DHT22;67232;50.096;8.716;2023-02-13T12:04:50;33.90;30.40
75161;DHT22;67232;50.096;8.716;2023-02-13T12:07:25;34.50;29.70
75161;DHT22;67232;50.096;8.716;2023-02-13T12:12:45;35.60;28.50
75161;DHT22;67232;50.096;8.716;2023-02-13T12:15:18;35.20;28.30
75161;DHT22;67232;50.096;8.716;2023-02-13T12:17:46;34.10;29.60
75161;DHT22;67232;50.096;8.716;2023-02-13T12:20:17;34.00;29.90
75161;DHT22;67232;50.096;8.716;2023-02-13T12:26:02;35.30;28.00
75161;DHT22;67232;50.096;8.716;2023-02-13T12:40:45;37.40;26.10
75161;DHT22;67232;50.096;8.716;2023-02-13T12:51:06;35.80;26.70
75161;DHT22;67232;50.096;8.716;2023-02-13T12:54:04;35.20;26.70
75161;DHT22;67232;50.096;8.716;2023-02-13T12:56:58;34.60;27.10
75161;DHT22;67232;50.096;8.716;2023-02-13T13:10:39;34.40;27.00
75161;DHT22;67232;50.096;8.716;2023-02-13T13:15:47;33.60;27.40
75161;DHT22;67232;50.096;8.716;2023-02-13T13:21:22;32.40;27.90
75161;DHT22;67232;50.096;8.716;2023-02-13T13:26:54;30.90;28.70
75161;DHT22;67232;50.096;8.716;2023-02-13T13:31:55;27.10;31.90
75161;DHT22;67232;50.096;8.716;2023-02-13T13:34:25;25.50;33.40
75161;DHT22;67232;50.096;8.716;2023-02-13T13:39:46;21.60;37.00
75161;DHT22;67232;50.096;8.716;2023-02-13T13:42:37;20.70;39.10
75161;DHT22;67232;50.096;8.716;2023-02-13T13:50:32;18.40;42.60
75161;DHT22;67232;50.096;8.716;2023-02-13T13:53:13;18.00;43.90
75161;DHT22;67232;50.096;8.716;2023-02-13T13:56:01;17.40;44.60
75161;DHT22;67232;50.096;8.716;2023-02-13T13:58:43;17.00;45.40
75161;DHT22;67232;50.096;8.716;2023-02-13T14:01:28;16.70;46.20
75161;DHT22;67232;50.096;8.716;2023-02-13T14:03:54;16.80;46.40
75161;DHT22;67232;50.096;8.716;2023-02-13T14:07:14;16.80;46.10
75161;DHT22;67232;50.096;8.716;2023-02-13T14:09:43;16.60;47.30
75161;DHT22;67232;50.096;8.716;2023-02-13T14:14:56;17.30;46.70
75161;DHT22;67232;50.096;8.716;2023-02-13T14:20:33;17.80;45.70
75161;DHT22;67232;50.096;8.716;2023-02-13T14:28:41;20.00;42.10
75161;DHT22;67232;50.096;8.716;2023-02-13T14:31:37;20.10;41.50
75161;DHT22;67232;50.096;8.716;2023-02-13T14:34:15;20.30;41.50
75161;DHT22;67232;50.096;8.716;2023-02-13T14:39:41;20.90;39.80
75161;DHT22;67232;50.096;8.716;2023-02-13T14:42:26;20.00;41.40
75161;DHT22;67232;50.096;8.716;2023-02-13T14:44:59;19.50;41.90
75161;DHT22;67232;50.096;8.716;2023-02-13T14:47:30;19.30;42.60
75161;DHT22;67232;50.096;8.716;2023-02-13T14:50:01;18.70;43.40
75161;DHT22;67232;50.096;8.716;2023-02-13T14:52:37;18.20;44.30
75161;DHT22;67232;50.096;8.716;2023-02-13T14:55:14;17.80;46.30
75161;DHT22;67232;50.096;8.716;2023-02-13T14:57:48;17.50;46.30
75161;DHT22;67232;50.096;8.716;2023-02-13T15:00:24;16.90;47.10
75161;DHT22;67232;50.096;8.716;2023-02-13T15:02:58;16.60;48.00
75161;DHT22;67232;50.096;8.716;2023-02-13T15:05:31;16.40;48.50
75161;DHT22;67232;50.096;8.716;2023-02-13T15:08:18;16.20;48.80
75161;DHT22;67232;50.096;8.716;2023-02-13T15:10:48;15.80;49.30
75161;DHT22;67232;50.096;8.716;2023-02-13T15:13:25;15.80;49.50
75161;DHT22;67232;50.096;8.716;2023-02-13T15:15:57;15.60;49.60
75161;DHT22;67232;50.096;8.716;2023-02-13T15:18:30;15.40;50.20
75161;DHT22;67232;50.096;8.716;2023-02-13T15:20:59;15.40;50.20
75161;DHT22;67232;50.096;8.716;2023-02-13T15:23:30;15.50;50.10
75161;DHT22;67232;50.096;8.716;2023-02-13T15:26:15;15.30;51.40
75161;DHT22;67232;50.096;8.716;2023-02-13T15:31:31;15.10;51.80
75161;DHT22;67232;50.096;8.716;2023-02-13T15:34:00;15.00;51.90
75161;DHT22;67232;50.096;8.716;2023-02-13T15:36:34;15.00;51.90
75161;DHT22;67232;50.096;8.716;2023-02-13T15:39:03;14.80;52.30
75161;DHT22;67232;50.096;8.716;2023-02-13T15:41:42;14.70;52.30
75161;DHT22;67232;50.096;8.716;2023-02-13T15:47:00;14.90;52.20
75161;DHT22;67232;50.096;8.716;2023-02-13T15:49:36;14.90;52.00
75161;DHT22;67232;50.096;8.716;2023-02-13T15:52:12;14.90;52.00
75161;DHT22;67232;50.096;8.716;2023-02-13T15:54:50;14.70;52.20
75161;DHT22;67232;50.096;8.716;2023-02-13T15:57:19;14.60;52.50
75161;DHT22;67232;50.096;8.716;2023-02-13T15:59:51;14.50;52.60
75161;DHT22;67232;50.096;8.716;2023-02-13T16:02:23;14.50;52.60
75161;DHT22;67232;50.096;8.716;2023-02-13T16:04:52;14.40;52.60
75161;DHT22;67232;50.096;8.716;2023-02-13T16:07:17;14.20;52.90
75161;DHT22;67232;50.096;8.716;2023-02-13T16:09:44;14.10;53.20
75161;DHT22;67232;50.096;8.716;2023-02-13T16:14:52;14.20;52.90
75161;DHT22;67232;50.096;8.716;2023-02-13T16:22:42;14.10;53.30
75161;DHT22;67232;50.096;8.716;2023-02-13T16:25:29;14.00;53.30
75161;DHT22;67232;50.096;8.716;2023-02-13T16:28:01;13.80;53.40
75161;DHT22;67232;50.096;8.716;2023-02-13T16:30:39;13.70;53.80
75161;DHT22;67232;50.096;8.716;2023-02-13T16:35:44;13.60;54.00
75161;DHT22;67232;50.096;8.716;2023-02-13T16:38:34;13.60;54.00
75161;DHT22;67232;50.096;8.716;2023-02-13T17:01:43;13.30;54.90
75161;DHT22;67232;50.096;8.716;2023-02-13T17:04:22;13.20;55.40
75161;DHT22;67232;50.096;8.716;2023-02-13T17:06:54;13.20;55.50
75161;DHT22;67232;50.096;8.716;2023-02-13T17:09:22;13.10;55.80
75161;DHT22;67232;50.096;8.716;2023-02-13T17:11:54;13.00;56.10
75161;DHT22;67232;50.096;8.716;2023-02-13T17:14:19;13.00;56.20
75161;DHT22;67232;50.096;8.716;2023-02-13T17:16:48;13.00;56.40
75161;DHT22;67232;50.096;8.716;2023-02-13T17:19:14;13.00;56.30
75161;DHT22;67232;50.096;8.716;2023-02-13T17:21:40;13.00;56.60
75161;DHT22;67232;50.096;8.716;2023-02-13T17:24:12;12.80;56.80
75161;DHT22;67232;50.096;8.716;2023-02-13T17:26:41;12.80;57.00
75161;DHT22;67232;50.096;8.716;2023-02-13T17:29:06;12.70;57.10
75161;DHT22;67232;50.096;8.716;2023-02-13T17:31:34;12.70;57.20
75161;DHT22;67232;50.096;8.716;2023-02-13T17:34:00;12.80;57.10
75161;DHT22;67232;50.096;8.716;2023-02-13T17:36:26;12.70;57.10
75161;DHT22;67232;50.096;8.716;2023-02-13T17:38:51;12.70;57.50
75161;DHT22;67232;50.096;8.716;2023-02-13T17:41:22;12.60;58.40
75161;DHT22;67232;50.096;8.716;2023-02-13T17:43:48;12.60;59.00
75161;DHT22;67232;50.096;8.716;2023-02-13T17:46:15;12.50;59.40
75161;DHT22;67232;50.096;8.716;2023-02-13T17:48:41;12.40;59.50
75161;DHT22;67232;50.096;8.716;2023-02-13T17:51:11;12.30;59.90
75161;DHT22;67232;50.096;8.716;2023-02-13T17:53:40;12.30;60.30
75161;DHT22;67232;50.096;8.716;2023-02-13T17:56:05;12.10;60.60
75161;DHT22;67232;50.096;8.716;2023-02-13T17:58:36;12.20;60.60
75161;DHT22;67232;50.096;8.716;2023-02-13T18:01:01;12.20;60.50
75161;DHT22;67232;50.096;8.716;2023-02-13T18:03:29;12.20;60.50
75161;DHT22;67232;50.096;8.716;2023-02-13T18:05:55;12.30;60.60
75161;DHT22;67232;50.096;8.716;2023-02-13T18:08:21;12.40;60.70
75161;DHT22;67232;50.096;8.716;2023-02-13T18:10:46;12.10;60.80
75161;DHT22;67232;50.096;8.716;2023-02-13T18:13:12;12.00;61.30
75161;DHT22;67232;50.096;8.716;2023-02-13T18:15:40;11.70;61.80
75161;DHT22;67232;50.096;8.716;2023-02-13T18:18:09;11.50;62.40
75161;DHT22;67232;50.096;8.716;2023-02-13T18:20:34;11.40;62.60
75161;DHT22;67232;50.096;8.716;2023-02-13T18:23:00;11.60;62.50
75161;DHT22;67232;50.096;8.716;2023-02-13T18:25:26;11.50;62.70
75161;DHT22;67232;50.096;8.716;2023-02-13T18:27:51;11.30;63.00
75161;DHT22;67232;50.096;8.716;2023-02-13T18:30:20;11.10;63.40
75161;DHT22;67232;50.096;8.716;2023-02-13T18:32:50;11.20;63.50
75161;DHT22;67232;50.096;8.716;2023-02-13T18:35:16;11.20;63.60
75161;DHT22;67232;50.096;8.716;2023-02-13T18:37:45;11.10;63.70
75161;DHT22;67232;50.096;8.716;2023-02-13T18:40:11;11.00;64.10
75161;DHT22;67232;50.096;8.716;2023-02-13T18:42:39;11.10;63.80
75161;DHT22;67232;50.096;8.716;2023-02-13T18:45:05;11.10;63.60
75161;DHT22;67232;50.096;8.716;2023-02-13T18:47:33;11.00;63.90
75161;DHT22;67232;50.096;8.716;2023-02-13T18:50:01;11.10;63.80
75161;DHT22;67232;50.096;8.716;2023-02-13T18:52:28;11.10;63.80
75161;DHT22;67232;50.096;8.716;2023-02-13T18:54:56;11.10;63.60
75161;DHT22;67232;50.096;8.716;2023-02-13T18:57:22;11.20;63.90
75161;DHT22;67232;50.096;8.716;2023-02-13T18:59:48;11.10;63.50
75161;DHT22;67232;50.096;8.716;2023-02-13T19:02:14;11.10;63.80
75161;DHT22;67232;50.096;8.716;2023-02-13T19:04:42;11.10;63.30
75161;DHT22;67232;50.096;8.716;2023-02-13T19:07:08;11.00;63.60
75161;DHT22;67232;50.096;8.716;2023-02-13T19:09:33;10.90;63.50